<?xml version="1.0" encoding="UTF-8" standalone="no" ?>
<gpx xmlns="http://www.topografix.com/GPX/1/1" xmlns:xsi="http://www.w3.org/2001/XMLSchema-instance" xsi:schemaLocation="http://www.topografix.com/GPX/1/1 http://www.topografix.com/GPX/1/1/gpx.xsd" version="1.1" creator="VisuGPX - https://www.visugpx.com">
  <metadata>
    <name>42  forez</name>
  </metadata>
  <trk>
    <name><![CDATA[J2  Biesse la Cote Fournier]]></name>
    <trkseg>
      <trkpt lat="45.43194" lon="4.22521">
        <ele>732</ele>
        <time>2018-09-26T14:32:09Z</time>
      </trkpt>
      <trkpt lat="45.43215" lon="4.2249">
        <ele>731</ele>
        <time>2018-09-26T14:33:09Z</time>
      </trkpt>
      <trkpt lat="45.43159" lon="4.22409">
        <ele>732</ele>
        <time>2018-09-26T14:34:09Z</time>
      </trkpt>
      <trkpt lat="45.43138" lon="4.22478">
        <ele>734</ele>
        <time>2018-09-26T14:35:09Z</time>
      </trkpt>
      <trkpt lat="45.43116" lon="4.22545">
        <ele>734</ele>
        <time>2018-09-26T14:36:09Z</time>
      </trkpt>
      <trkpt lat="45.43113" lon="4.22575">
        <ele>734</ele>
        <time>2018-09-26T14:37:09Z</time>
      </trkpt>
      <trkpt lat="45.43109" lon="4.22618">
        <ele>732</ele>
        <time>2018-09-26T14:38:09Z</time>
      </trkpt>
      <trkpt lat="45.43077" lon="4.2262">
        <ele>731</ele>
        <time>2018-09-26T14:39:09Z</time>
      </trkpt>
      <trkpt lat="45.43056" lon="4.22606">
        <ele>731</ele>
        <time>2018-09-26T14:40:09Z</time>
      </trkpt>
      <trkpt lat="45.42997" lon="4.22577">
        <ele>731</ele>
        <time>2018-09-26T14:41:09Z</time>
      </trkpt>
      <trkpt lat="45.42821" lon="4.22391">
        <ele>720</ele>
        <time>2018-09-26T14:42:09Z</time>
      </trkpt>
      <trkpt lat="45.42816" lon="4.22285">
        <ele>718</ele>
        <time>2018-09-26T14:43:09Z</time>
      </trkpt>
      <trkpt lat="45.42793" lon="4.22218">
        <ele>715</ele>
        <time>2018-09-26T14:44:09Z</time>
      </trkpt>
      <trkpt lat="45.42767" lon="4.2214">
        <ele>711</ele>
        <time>2018-09-26T14:45:09Z</time>
      </trkpt>
      <trkpt lat="45.42716" lon="4.2203">
        <ele>714</ele>
        <time>2018-09-26T14:46:09Z</time>
      </trkpt>
      <trkpt lat="45.42734" lon="4.21998">
        <ele>715</ele>
        <time>2018-09-26T14:47:09Z</time>
      </trkpt>
      <trkpt lat="45.42793" lon="4.22027">
        <ele>715</ele>
        <time>2018-09-26T14:48:09Z</time>
      </trkpt>
      <trkpt lat="45.42847" lon="4.21962">
        <ele>718</ele>
        <time>2018-09-26T14:49:09Z</time>
      </trkpt>
      <trkpt lat="45.42886" lon="4.21908">
        <ele>719</ele>
        <time>2018-09-26T14:50:09Z</time>
      </trkpt>
      <trkpt lat="45.42925" lon="4.21879">
        <ele>720</ele>
        <time>2018-09-26T14:51:09Z</time>
      </trkpt>
      <trkpt lat="45.42963" lon="4.21859">
        <ele>720</ele>
        <time>2018-09-26T14:52:09Z</time>
      </trkpt>
      <trkpt lat="45.43052" lon="4.21814">
        <ele>719</ele>
        <time>2018-09-26T14:53:09Z</time>
      </trkpt>
      <trkpt lat="45.43035" lon="4.21642">
        <ele>718</ele>
        <time>2018-09-26T14:54:09Z</time>
      </trkpt>
      <trkpt lat="45.43032" lon="4.21619">
        <ele>718</ele>
        <time>2018-09-26T14:55:09Z</time>
      </trkpt>
      <trkpt lat="45.43049" lon="4.21579">
        <ele>718</ele>
        <time>2018-09-26T14:56:09Z</time>
      </trkpt>
      <trkpt lat="45.43061" lon="4.2153">
        <ele>718</ele>
        <time>2018-09-26T14:57:09Z</time>
      </trkpt>
      <trkpt lat="45.43074" lon="4.21464">
        <ele>720</ele>
        <time>2018-09-26T14:58:09Z</time>
      </trkpt>
      <trkpt lat="45.43071" lon="4.21423">
        <ele>721</ele>
        <time>2018-09-26T14:59:09Z</time>
      </trkpt>
      <trkpt lat="45.43065" lon="4.21325">
        <ele>720</ele>
        <time>2018-09-26T15:00:09Z</time>
      </trkpt>
      <trkpt lat="45.42937" lon="4.21297">
        <ele>726</ele>
        <time>2018-09-26T15:01:09Z</time>
      </trkpt>
      <trkpt lat="45.42895" lon="4.21287">
        <ele>727</ele>
        <time>2018-09-26T15:02:09Z</time>
      </trkpt>
      <trkpt lat="45.42883" lon="4.21275">
        <ele>727</ele>
        <time>2018-09-26T15:03:09Z</time>
      </trkpt>
      <trkpt lat="45.42783" lon="4.21156">
        <ele>729</ele>
        <time>2018-09-26T15:04:09Z</time>
      </trkpt>
      <trkpt lat="45.42772" lon="4.21143">
        <ele>730</ele>
        <time>2018-09-26T15:05:09Z</time>
      </trkpt>
      <trkpt lat="45.4275" lon="4.211">
        <ele>732</ele>
        <time>2018-09-26T15:06:09Z</time>
      </trkpt>
      <trkpt lat="45.42815" lon="4.2086">
        <ele>729</ele>
        <time>2018-09-26T15:07:09Z</time>
      </trkpt>
      <trkpt lat="45.42826" lon="4.20831">
        <ele>729</ele>
        <time>2018-09-26T15:08:09Z</time>
      </trkpt>
      <trkpt lat="45.4285" lon="4.20809">
        <ele>730</ele>
        <time>2018-09-26T15:09:09Z</time>
      </trkpt>
      <trkpt lat="45.42885" lon="4.20781">
        <ele>731</ele>
        <time>2018-09-26T15:10:09Z</time>
      </trkpt>
      <trkpt lat="45.42916" lon="4.20731">
        <ele>732</ele>
        <time>2018-09-26T15:11:09Z</time>
      </trkpt>
      <trkpt lat="45.42928" lon="4.20692">
        <ele>733</ele>
        <time>2018-09-26T15:12:09Z</time>
      </trkpt>
      <trkpt lat="45.42945" lon="4.20656">
        <ele>734</ele>
        <time>2018-09-26T15:13:09Z</time>
      </trkpt>
      <trkpt lat="45.42961" lon="4.20596">
        <ele>735</ele>
        <time>2018-09-26T15:14:09Z</time>
      </trkpt>
      <trkpt lat="45.42965" lon="4.20581">
        <ele>735</ele>
        <time>2018-09-26T15:15:09Z</time>
      </trkpt>
      <trkpt lat="45.42915" lon="4.20537">
        <ele>733</ele>
        <time>2018-09-26T15:16:09Z</time>
      </trkpt>
      <trkpt lat="45.42855" lon="4.20502">
        <ele>730</ele>
        <time>2018-09-26T15:17:09Z</time>
      </trkpt>
      <trkpt lat="45.42787" lon="4.20477">
        <ele>726</ele>
        <time>2018-09-26T15:18:09Z</time>
      </trkpt>
      <trkpt lat="45.42773" lon="4.20471">
        <ele>726</ele>
        <time>2018-09-26T15:19:09Z</time>
      </trkpt>
      <trkpt lat="45.42659" lon="4.20457">
        <ele>719</ele>
        <time>2018-09-26T15:20:09Z</time>
      </trkpt>
      <trkpt lat="45.42617" lon="4.20447">
        <ele>717</ele>
        <time>2018-09-26T15:21:09Z</time>
      </trkpt>
      <trkpt lat="45.42531" lon="4.20418">
        <ele>712</ele>
        <time>2018-09-26T15:22:09Z</time>
      </trkpt>
      <trkpt lat="45.42498" lon="4.20403">
        <ele>711</ele>
        <time>2018-09-26T15:23:09Z</time>
      </trkpt>
      <trkpt lat="45.42484" lon="4.20402">
        <ele>710</ele>
        <time>2018-09-26T15:24:09Z</time>
      </trkpt>
      <trkpt lat="45.42412" lon="4.20399">
        <ele>707</ele>
        <time>2018-09-26T15:25:09Z</time>
      </trkpt>
      <trkpt lat="45.42398" lon="4.20391">
        <ele>707</ele>
        <time>2018-09-26T15:26:09Z</time>
      </trkpt>
      <trkpt lat="45.42368" lon="4.20363">
        <ele>706</ele>
        <time>2018-09-26T15:27:09Z</time>
      </trkpt>
      <trkpt lat="45.42355" lon="4.20358">
        <ele>705</ele>
        <time>2018-09-26T15:28:09Z</time>
      </trkpt>
      <trkpt lat="45.4231" lon="4.20352">
        <ele>706</ele>
        <time>2018-09-26T15:29:09Z</time>
      </trkpt>
      <trkpt lat="45.42257" lon="4.2035">
        <ele>709</ele>
        <time>2018-09-26T15:30:09Z</time>
      </trkpt>
      <trkpt lat="45.42181" lon="4.20303">
        <ele>713</ele>
        <time>2018-09-26T15:31:09Z</time>
      </trkpt>
      <trkpt lat="45.4216" lon="4.20289">
        <ele>714</ele>
        <time>2018-09-26T15:32:09Z</time>
      </trkpt>
      <trkpt lat="45.4214" lon="4.20271">
        <ele>716</ele>
        <time>2018-09-26T15:33:09Z</time>
      </trkpt>
      <trkpt lat="45.42065" lon="4.20221">
        <ele>722</ele>
        <time>2018-09-26T15:34:09Z</time>
      </trkpt>
      <trkpt lat="45.42037" lon="4.20205">
        <ele>724</ele>
        <time>2018-09-26T15:35:09Z</time>
      </trkpt>
      <trkpt lat="45.41957" lon="4.20178">
        <ele>727</ele>
        <time>2018-09-26T15:36:09Z</time>
      </trkpt>
      <trkpt lat="45.41931" lon="4.20122">
        <ele>732</ele>
        <time>2018-09-26T15:37:09Z</time>
      </trkpt>
      <trkpt lat="45.41905" lon="4.20056">
        <ele>736</ele>
        <time>2018-09-26T15:38:09Z</time>
      </trkpt>
      <trkpt lat="45.41864" lon="4.1999">
        <ele>739</ele>
        <time>2018-09-26T15:39:09Z</time>
      </trkpt>
      <trkpt lat="45.4184" lon="4.19968">
        <ele>740</ele>
        <time>2018-09-26T15:40:09Z</time>
      </trkpt>
      <trkpt lat="45.41821" lon="4.19965">
        <ele>740</ele>
        <time>2018-09-26T15:41:09Z</time>
      </trkpt>
      <trkpt lat="45.41733" lon="4.19876">
        <ele>748</ele>
        <time>2018-09-26T15:42:09Z</time>
      </trkpt>
      <trkpt lat="45.41686" lon="4.19849">
        <ele>753</ele>
        <time>2018-09-26T15:43:09Z</time>
      </trkpt>
      <trkpt lat="45.41635" lon="4.19829">
        <ele>756</ele>
        <time>2018-09-26T15:44:09Z</time>
      </trkpt>
      <trkpt lat="45.41489" lon="4.19783">
        <ele>757</ele>
        <time>2018-09-26T15:45:09Z</time>
      </trkpt>
      <trkpt lat="45.41416" lon="4.19796">
        <ele>759</ele>
        <time>2018-09-26T15:46:09Z</time>
      </trkpt>
      <trkpt lat="45.4139" lon="4.19783">
        <ele>761</ele>
        <time>2018-09-26T15:47:09Z</time>
      </trkpt>
      <trkpt lat="45.41355" lon="4.19769">
        <ele>763</ele>
        <time>2018-09-26T15:48:09Z</time>
      </trkpt>
      <trkpt lat="45.41331" lon="4.19749">
        <ele>764</ele>
        <time>2018-09-26T15:49:09Z</time>
      </trkpt>
      <trkpt lat="45.41275" lon="4.19731">
        <ele>765</ele>
        <time>2018-09-26T15:50:09Z</time>
      </trkpt>
      <trkpt lat="45.41193" lon="4.19714">
        <ele>767</ele>
        <time>2018-09-26T15:51:09Z</time>
      </trkpt>
      <trkpt lat="45.41183" lon="4.1957">
        <ele>771</ele>
        <time>2018-09-26T15:52:09Z</time>
      </trkpt>
      <trkpt lat="45.41172" lon="4.19525">
        <ele>773</ele>
        <time>2018-09-26T15:53:09Z</time>
      </trkpt>
      <trkpt lat="45.4115" lon="4.19454">
        <ele>775</ele>
        <time>2018-09-26T15:54:09Z</time>
      </trkpt>
      <trkpt lat="45.4113" lon="4.19436">
        <ele>776</ele>
        <time>2018-09-26T15:55:09Z</time>
      </trkpt>
      <trkpt lat="45.41117" lon="4.194">
        <ele>776</ele>
        <time>2018-09-26T15:56:09Z</time>
      </trkpt>
      <trkpt lat="45.41098" lon="4.1934">
        <ele>776</ele>
        <time>2018-09-26T15:57:09Z</time>
      </trkpt>
      <trkpt lat="45.41098" lon="4.19296">
        <ele>775</ele>
        <time>2018-09-26T15:58:09Z</time>
      </trkpt>
      <trkpt lat="45.41104" lon="4.19245">
        <ele>776</ele>
        <time>2018-09-26T15:59:09Z</time>
      </trkpt>
      <trkpt lat="45.41121" lon="4.19194">
        <ele>777</ele>
        <time>2018-09-26T16:00:09Z</time>
      </trkpt>
      <trkpt lat="45.4115" lon="4.19121">
        <ele>775</ele>
        <time>2018-09-26T16:01:09Z</time>
      </trkpt>
      <trkpt lat="45.41161" lon="4.19084">
        <ele>773</ele>
        <time>2018-09-26T16:02:09Z</time>
      </trkpt>
      <trkpt lat="45.41198" lon="4.19032">
        <ele>770</ele>
        <time>2018-09-26T16:03:09Z</time>
      </trkpt>
      <trkpt lat="45.41206" lon="4.18986">
        <ele>768</ele>
        <time>2018-09-26T16:04:09Z</time>
      </trkpt>
      <trkpt lat="45.41218" lon="4.18923">
        <ele>765</ele>
        <time>2018-09-26T16:05:09Z</time>
      </trkpt>
      <trkpt lat="45.4122" lon="4.18872">
        <ele>763</ele>
        <time>2018-09-26T16:06:09Z</time>
      </trkpt>
      <trkpt lat="45.41241" lon="4.18798">
        <ele>763</ele>
        <time>2018-09-26T16:07:09Z</time>
      </trkpt>
      <trkpt lat="45.4125" lon="4.18743">
        <ele>765</ele>
        <time>2018-09-26T16:08:09Z</time>
      </trkpt>
      <trkpt lat="45.41248" lon="4.18704">
        <ele>766</ele>
        <time>2018-09-26T16:09:09Z</time>
      </trkpt>
      <trkpt lat="45.41272" lon="4.18552">
        <ele>768</ele>
        <time>2018-09-26T16:10:09Z</time>
      </trkpt>
      <trkpt lat="45.4132" lon="4.18466">
        <ele>770</ele>
        <time>2018-09-26T16:11:09Z</time>
      </trkpt>
      <trkpt lat="45.41357" lon="4.18411">
        <ele>770</ele>
        <time>2018-09-26T16:12:09Z</time>
      </trkpt>
      <trkpt lat="45.41396" lon="4.18411">
        <ele>771</ele>
        <time>2018-09-26T16:13:09Z</time>
      </trkpt>
      <trkpt lat="45.41482" lon="4.18362">
        <ele>769</ele>
        <time>2018-09-26T16:14:09Z</time>
      </trkpt>
      <trkpt lat="45.41502" lon="4.18358">
        <ele>769</ele>
        <time>2018-09-26T16:15:09Z</time>
      </trkpt>
      <trkpt lat="45.41498" lon="4.18316">
        <ele>766</ele>
        <time>2018-09-26T16:16:09Z</time>
      </trkpt>
      <trkpt lat="45.41548" lon="4.18142">
        <ele>755</ele>
        <time>2018-09-26T16:17:09Z</time>
      </trkpt>
      <trkpt lat="45.4158" lon="4.1808">
        <ele>753</ele>
        <time>2018-09-26T16:18:09Z</time>
      </trkpt>
      <trkpt lat="45.41614" lon="4.1798">
        <ele>743</ele>
        <time>2018-09-26T16:19:09Z</time>
      </trkpt>
      <trkpt lat="45.41616" lon="4.17956">
        <ele>742</ele>
        <time>2018-09-26T16:20:09Z</time>
      </trkpt>
      <trkpt lat="45.41617" lon="4.17904">
        <ele>740</ele>
        <time>2018-09-26T16:21:09Z</time>
      </trkpt>
      <trkpt lat="45.41627" lon="4.17862">
        <ele>739</ele>
        <time>2018-09-26T16:22:09Z</time>
      </trkpt>
      <trkpt lat="45.4165" lon="4.17824">
        <ele>737</ele>
        <time>2018-09-26T16:23:09Z</time>
      </trkpt>
      <trkpt lat="45.41657" lon="4.17802">
        <ele>736</ele>
        <time>2018-09-26T16:24:09Z</time>
      </trkpt>
      <trkpt lat="45.41695" lon="4.17735">
        <ele>728</ele>
        <time>2018-09-26T16:25:09Z</time>
      </trkpt>
      <trkpt lat="45.41742" lon="4.17686">
        <ele>722</ele>
        <time>2018-09-26T16:26:09Z</time>
      </trkpt>
      <trkpt lat="45.41783" lon="4.17671">
        <ele>721</ele>
        <time>2018-09-26T16:27:09Z</time>
      </trkpt>
      <trkpt lat="45.41831" lon="4.1767">
        <ele>721</ele>
        <time>2018-09-26T16:28:09Z</time>
      </trkpt>
      <trkpt lat="45.41872" lon="4.17666">
        <ele>721</ele>
        <time>2018-09-26T16:29:09Z</time>
      </trkpt>
      <trkpt lat="45.41907" lon="4.17646">
        <ele>721</ele>
        <time>2018-09-26T16:30:09Z</time>
      </trkpt>
      <trkpt lat="45.41916" lon="4.1763">
        <ele>720</ele>
        <time>2018-09-26T16:31:09Z</time>
      </trkpt>
      <trkpt lat="45.41927" lon="4.17563">
        <ele>717</ele>
        <time>2018-09-26T16:32:09Z</time>
      </trkpt>
      <trkpt lat="45.41954" lon="4.17531">
        <ele>715</ele>
        <time>2018-09-26T16:33:09Z</time>
      </trkpt>
      <trkpt lat="45.4201" lon="4.17469">
        <ele>711</ele>
        <time>2018-09-26T16:34:09Z</time>
      </trkpt>
      <trkpt lat="45.42053" lon="4.17438">
        <ele>710</ele>
        <time>2018-09-26T16:35:09Z</time>
      </trkpt>
      <trkpt lat="45.42113" lon="4.17423">
        <ele>707</ele>
        <time>2018-09-26T16:36:09Z</time>
      </trkpt>
      <trkpt lat="45.42184" lon="4.17425">
        <ele>703</ele>
        <time>2018-09-26T16:37:09Z</time>
      </trkpt>
      <trkpt lat="45.42192" lon="4.17385">
        <ele>703</ele>
        <time>2018-09-26T16:38:09Z</time>
      </trkpt>
      <trkpt lat="45.42203" lon="4.17322">
        <ele>701</ele>
        <time>2018-09-26T16:39:09Z</time>
      </trkpt>
      <trkpt lat="45.42224" lon="4.17255">
        <ele>693</ele>
        <time>2018-09-26T16:40:09Z</time>
      </trkpt>
      <trkpt lat="45.42221" lon="4.17223">
        <ele>691</ele>
        <time>2018-09-26T16:41:09Z</time>
      </trkpt>
      <trkpt lat="45.42217" lon="4.1719">
        <ele>688</ele>
        <time>2018-09-26T16:42:09Z</time>
      </trkpt>
      <trkpt lat="45.42212" lon="4.17146">
        <ele>684</ele>
        <time>2018-09-26T16:43:09Z</time>
      </trkpt>
      <trkpt lat="45.42212" lon="4.17115">
        <ele>681</ele>
        <time>2018-09-26T16:44:09Z</time>
      </trkpt>
      <trkpt lat="45.42227" lon="4.16988">
        <ele>670</ele>
        <time>2018-09-26T16:45:09Z</time>
      </trkpt>
      <trkpt lat="45.42199" lon="4.16878">
        <ele>665</ele>
        <time>2018-09-26T16:46:09Z</time>
      </trkpt>
      <trkpt lat="45.42191" lon="4.16837">
        <ele>661</ele>
        <time>2018-09-26T16:47:09Z</time>
      </trkpt>
      <trkpt lat="45.4218" lon="4.16713">
        <ele>648</ele>
        <time>2018-09-26T16:48:09Z</time>
      </trkpt>
      <trkpt lat="45.42174" lon="4.16673">
        <ele>644</ele>
        <time>2018-09-26T16:49:09Z</time>
      </trkpt>
      <trkpt lat="45.42172" lon="4.16641">
        <ele>641</ele>
        <time>2018-09-26T16:50:09Z</time>
      </trkpt>
      <trkpt lat="45.42175" lon="4.16602">
        <ele>636</ele>
        <time>2018-09-26T16:51:09Z</time>
      </trkpt>
      <trkpt lat="45.4218" lon="4.16576">
        <ele>634</ele>
        <time>2018-09-26T16:52:09Z</time>
      </trkpt>
      <trkpt lat="45.42175" lon="4.16565">
        <ele>633</ele>
        <time>2018-09-26T16:53:09Z</time>
      </trkpt>
      <trkpt lat="45.42169" lon="4.16547">
        <ele>631</ele>
        <time>2018-09-26T16:54:09Z</time>
      </trkpt>
      <trkpt lat="45.42167" lon="4.16529">
        <ele>629</ele>
        <time>2018-09-26T16:55:09Z</time>
      </trkpt>
      <trkpt lat="45.42176" lon="4.16503">
        <ele>627</ele>
        <time>2018-09-26T16:56:09Z</time>
      </trkpt>
      <trkpt lat="45.42148" lon="4.16478">
        <ele>628</ele>
        <time>2018-09-26T16:57:09Z</time>
      </trkpt>
      <trkpt lat="45.42143" lon="4.16463">
        <ele>628</ele>
        <time>2018-09-26T16:58:09Z</time>
      </trkpt>
      <trkpt lat="45.42145" lon="4.16451">
        <ele>628</ele>
        <time>2018-09-26T16:59:09Z</time>
      </trkpt>
      <trkpt lat="45.42151" lon="4.16435">
        <ele>628</ele>
        <time>2018-09-26T17:00:09Z</time>
      </trkpt>
      <trkpt lat="45.42126" lon="4.16422">
        <ele>629</ele>
        <time>2018-09-26T17:01:09Z</time>
      </trkpt>
      <trkpt lat="45.42103" lon="4.16403">
        <ele>629</ele>
        <time>2018-09-26T17:02:09Z</time>
      </trkpt>
      <trkpt lat="45.42086" lon="4.16389">
        <ele>629</ele>
        <time>2018-09-26T17:03:09Z</time>
      </trkpt>
      <trkpt lat="45.42026" lon="4.16389">
        <ele>635</ele>
        <time>2018-09-26T17:04:09Z</time>
      </trkpt>
      <trkpt lat="45.4201" lon="4.1641">
        <ele>639</ele>
        <time>2018-09-26T17:05:09Z</time>
      </trkpt>
      <trkpt lat="45.41995" lon="4.16435">
        <ele>642</ele>
        <time>2018-09-26T17:06:09Z</time>
      </trkpt>
      <trkpt lat="45.41974" lon="4.16471">
        <ele>645</ele>
        <time>2018-09-26T17:07:09Z</time>
      </trkpt>
      <trkpt lat="45.41952" lon="4.1649">
        <ele>648</ele>
        <time>2018-09-26T17:08:09Z</time>
      </trkpt>
      <trkpt lat="45.41905" lon="4.16504">
        <ele>653</ele>
        <time>2018-09-26T17:09:09Z</time>
      </trkpt>
      <trkpt lat="45.41872" lon="4.16486">
        <ele>657</ele>
        <time>2018-09-26T17:10:09Z</time>
      </trkpt>
      <trkpt lat="45.41829" lon="4.16441">
        <ele>663</ele>
        <time>2018-09-26T17:11:09Z</time>
      </trkpt>
      <trkpt lat="45.41804" lon="4.16435">
        <ele>665</ele>
        <time>2018-09-26T17:12:09Z</time>
      </trkpt>
      <trkpt lat="45.41787" lon="4.16437">
        <ele>666</ele>
        <time>2018-09-26T17:13:09Z</time>
      </trkpt>
      <trkpt lat="45.41722" lon="4.164">
        <ele>673</ele>
        <time>2018-09-26T17:14:09Z</time>
      </trkpt>
      <trkpt lat="45.41686" lon="4.16342">
        <ele>680</ele>
        <time>2018-09-26T17:15:09Z</time>
      </trkpt>
      <trkpt lat="45.41678" lon="4.16323">
        <ele>682</ele>
        <time>2018-09-26T17:16:09Z</time>
      </trkpt>
      <trkpt lat="45.41678" lon="4.16308">
        <ele>682</ele>
        <time>2018-09-26T17:17:09Z</time>
      </trkpt>
      <trkpt lat="45.41673" lon="4.16288">
        <ele>683</ele>
        <time>2018-09-26T17:18:09Z</time>
      </trkpt>
      <trkpt lat="45.41676" lon="4.16239">
        <ele>684</ele>
        <time>2018-09-26T17:19:09Z</time>
      </trkpt>
      <trkpt lat="45.41694" lon="4.16218">
        <ele>682</ele>
        <time>2018-09-26T17:20:09Z</time>
      </trkpt>
      <trkpt lat="45.4171" lon="4.1618">
        <ele>679</ele>
        <time>2018-09-26T17:21:09Z</time>
      </trkpt>
      <trkpt lat="45.41721" lon="4.16109">
        <ele>677</ele>
        <time>2018-09-26T17:22:09Z</time>
      </trkpt>
      <trkpt lat="45.41728" lon="4.16067">
        <ele>676</ele>
        <time>2018-09-26T17:23:09Z</time>
      </trkpt>
      <trkpt lat="45.41739" lon="4.16019">
        <ele>674</ele>
        <time>2018-09-26T17:24:09Z</time>
      </trkpt>
      <trkpt lat="45.41741" lon="4.16005">
        <ele>673</ele>
        <time>2018-09-26T17:25:09Z</time>
      </trkpt>
      <trkpt lat="45.41733" lon="4.15991">
        <ele>673</ele>
        <time>2018-09-26T17:26:09Z</time>
      </trkpt>
      <trkpt lat="45.41722" lon="4.15987">
        <ele>674</ele>
        <time>2018-09-26T17:27:09Z</time>
      </trkpt>
      <trkpt lat="45.41699" lon="4.15983">
        <ele>675</ele>
        <time>2018-09-26T17:28:09Z</time>
      </trkpt>
      <trkpt lat="45.41697" lon="4.15964">
        <ele>674</ele>
        <time>2018-09-26T17:29:09Z</time>
      </trkpt>
      <trkpt lat="45.41696" lon="4.15948">
        <ele>673</ele>
        <time>2018-09-26T17:30:09Z</time>
      </trkpt>
      <trkpt lat="45.41699" lon="4.15932">
        <ele>671</ele>
        <time>2018-09-26T17:31:09Z</time>
      </trkpt>
      <trkpt lat="45.41691" lon="4.15857">
        <ele>665</ele>
        <time>2018-09-26T17:32:09Z</time>
      </trkpt>
      <trkpt lat="45.41666" lon="4.15835">
        <ele>666</ele>
        <time>2018-09-26T17:33:09Z</time>
      </trkpt>
      <trkpt lat="45.41664" lon="4.15819">
        <ele>665</ele>
        <time>2018-09-26T17:34:09Z</time>
      </trkpt>
      <trkpt lat="45.41658" lon="4.15766">
        <ele>663</ele>
        <time>2018-09-26T17:35:09Z</time>
      </trkpt>
      <trkpt lat="45.41633" lon="4.15725">
        <ele>662</ele>
        <time>2018-09-26T17:36:09Z</time>
      </trkpt>
      <trkpt lat="45.41636" lon="4.15708">
        <ele>661</ele>
        <time>2018-09-26T17:37:09Z</time>
      </trkpt>
      <trkpt lat="45.41639" lon="4.15678">
        <ele>659</ele>
        <time>2018-09-26T17:38:09Z</time>
      </trkpt>
      <trkpt lat="45.41632" lon="4.1561">
        <ele>652</ele>
        <time>2018-09-26T17:39:09Z</time>
      </trkpt>
      <trkpt lat="45.41624" lon="4.15584">
        <ele>650</ele>
        <time>2018-09-26T17:40:09Z</time>
      </trkpt>
      <trkpt lat="45.41611" lon="4.15583">
        <ele>649</ele>
        <time>2018-09-26T17:41:09Z</time>
      </trkpt>
      <trkpt lat="45.41641" lon="4.15537">
        <ele>649</ele>
        <time>2018-09-26T17:42:09Z</time>
      </trkpt>
      <trkpt lat="45.41657" lon="4.15495">
        <ele>649</ele>
        <time>2018-09-26T17:43:09Z</time>
      </trkpt>
      <trkpt lat="45.417" lon="4.15497">
        <ele>647</ele>
        <time>2018-09-26T17:44:09Z</time>
      </trkpt>
      <trkpt lat="45.41733" lon="4.1549">
        <ele>646</ele>
        <time>2018-09-26T17:45:09Z</time>
      </trkpt>
      <trkpt lat="45.41812" lon="4.15478">
        <ele>648</ele>
        <time>2018-09-26T17:46:09Z</time>
      </trkpt>
      <trkpt lat="45.41868" lon="4.15472">
        <ele>651</ele>
        <time>2018-09-26T17:47:09Z</time>
      </trkpt>
      <trkpt lat="45.41916" lon="4.15454">
        <ele>655</ele>
        <time>2018-09-26T17:48:09Z</time>
      </trkpt>
      <trkpt lat="45.41947" lon="4.15452">
        <ele>658</ele>
        <time>2018-09-26T17:49:09Z</time>
      </trkpt>
      <trkpt lat="45.41992" lon="4.1546">
        <ele>662</ele>
        <time>2018-09-26T17:50:09Z</time>
      </trkpt>
      <trkpt lat="45.42032" lon="4.15448">
        <ele>665</ele>
        <time>2018-09-26T17:51:09Z</time>
      </trkpt>
      <trkpt lat="45.42052" lon="4.15429">
        <ele>666</ele>
        <time>2018-09-26T17:52:09Z</time>
      </trkpt>
      <trkpt lat="45.42057" lon="4.15384">
        <ele>667</ele>
        <time>2018-09-26T17:53:09Z</time>
      </trkpt>
      <trkpt lat="45.42066" lon="4.15356">
        <ele>668</ele>
        <time>2018-09-26T17:54:09Z</time>
      </trkpt>
      <trkpt lat="45.42091" lon="4.15308">
        <ele>672</ele>
        <time>2018-09-26T17:55:09Z</time>
      </trkpt>
      <trkpt lat="45.42079" lon="4.15275">
        <ele>672</ele>
        <time>2018-09-26T17:56:09Z</time>
      </trkpt>
      <trkpt lat="45.4207" lon="4.15259">
        <ele>672</ele>
        <time>2018-09-26T17:57:09Z</time>
      </trkpt>
      <trkpt lat="45.42069" lon="4.15246">
        <ele>673</ele>
        <time>2018-09-26T17:58:09Z</time>
      </trkpt>
      <trkpt lat="45.42074" lon="4.15217">
        <ele>673</ele>
        <time>2018-09-26T17:59:09Z</time>
      </trkpt>
      <trkpt lat="45.42037" lon="4.152">
        <ele>670</ele>
        <time>2018-09-26T18:00:09Z</time>
      </trkpt>
      <trkpt lat="45.42" lon="4.15172">
        <ele>668</ele>
        <time>2018-09-26T18:01:09Z</time>
      </trkpt>
      <trkpt lat="45.41967" lon="4.15146">
        <ele>666</ele>
        <time>2018-09-26T18:02:09Z</time>
      </trkpt>
      <trkpt lat="45.41945" lon="4.15118">
        <ele>664</ele>
        <time>2018-09-26T18:03:09Z</time>
      </trkpt>
      <trkpt lat="45.41919" lon="4.15068">
        <ele>662</ele>
        <time>2018-09-26T18:04:09Z</time>
      </trkpt>
      <trkpt lat="45.41899" lon="4.15036">
        <ele>661</ele>
        <time>2018-09-26T18:05:09Z</time>
      </trkpt>
      <trkpt lat="45.41879" lon="4.15011">
        <ele>661</ele>
        <time>2018-09-26T18:06:09Z</time>
      </trkpt>
      <trkpt lat="45.41868" lon="4.14948">
        <ele>663</ele>
        <time>2018-09-26T18:07:09Z</time>
      </trkpt>
      <trkpt lat="45.41851" lon="4.14883">
        <ele>666</ele>
        <time>2018-09-26T18:08:09Z</time>
      </trkpt>
      <trkpt lat="45.41859" lon="4.14839">
        <ele>668</ele>
        <time>2018-09-26T18:09:09Z</time>
      </trkpt>
      <trkpt lat="45.4187" lon="4.14803">
        <ele>670</ele>
        <time>2018-09-26T18:10:09Z</time>
      </trkpt>
      <trkpt lat="45.41888" lon="4.14759">
        <ele>674</ele>
        <time>2018-09-26T18:11:09Z</time>
      </trkpt>
      <trkpt lat="45.41943" lon="4.14637">
        <ele>679</ele>
        <time>2018-09-26T18:12:09Z</time>
      </trkpt>
      <trkpt lat="45.41989" lon="4.1455">
        <ele>684</ele>
        <time>2018-09-26T18:13:09Z</time>
      </trkpt>
      <trkpt lat="45.42033" lon="4.14466">
        <ele>684</ele>
        <time>2018-09-26T18:14:09Z</time>
      </trkpt>
      <trkpt lat="45.42061" lon="4.14386">
        <ele>684</ele>
        <time>2018-09-26T18:15:09Z</time>
      </trkpt>
      <trkpt lat="45.42079" lon="4.1432">
        <ele>682</ele>
        <time>2018-09-26T18:16:09Z</time>
      </trkpt>
      <trkpt lat="45.42094" lon="4.14251">
        <ele>681</ele>
        <time>2018-09-26T18:17:09Z</time>
      </trkpt>
      <trkpt lat="45.42109" lon="4.14148">
        <ele>678</ele>
        <time>2018-09-26T18:18:09Z</time>
      </trkpt>
      <trkpt lat="45.4212" lon="4.14071">
        <ele>677</ele>
        <time>2018-09-26T18:19:09Z</time>
      </trkpt>
      <trkpt lat="45.42148" lon="4.13911">
        <ele>679</ele>
        <time>2018-09-26T18:20:09Z</time>
      </trkpt>
      <trkpt lat="45.42161" lon="4.13827">
        <ele>678</ele>
        <time>2018-09-26T18:21:09Z</time>
      </trkpt>
      <trkpt lat="45.42156" lon="4.13789">
        <ele>678</ele>
        <time>2018-09-26T18:22:09Z</time>
      </trkpt>
      <trkpt lat="45.42153" lon="4.13754">
        <ele>677</ele>
        <time>2018-09-26T18:23:09Z</time>
      </trkpt>
      <trkpt lat="45.42152" lon="4.13705">
        <ele>677</ele>
        <time>2018-09-26T18:24:09Z</time>
      </trkpt>
      <trkpt lat="45.42157" lon="4.13676">
        <ele>676</ele>
        <time>2018-09-26T18:25:09Z</time>
      </trkpt>
      <trkpt lat="45.42162" lon="4.13658">
        <ele>676</ele>
        <time>2018-09-26T18:26:09Z</time>
      </trkpt>
      <trkpt lat="45.42178" lon="4.13628">
        <ele>676</ele>
        <time>2018-09-26T18:27:09Z</time>
      </trkpt>
      <trkpt lat="45.422" lon="4.13593">
        <ele>677</ele>
        <time>2018-09-26T18:28:09Z</time>
      </trkpt>
      <trkpt lat="45.42135" lon="4.13518">
        <ele>680</ele>
        <time>2018-09-26T18:29:09Z</time>
      </trkpt>
      <trkpt lat="45.4227" lon="4.13429">
        <ele>675</ele>
        <time>2018-09-26T18:30:09Z</time>
      </trkpt>
      <trkpt lat="45.42279" lon="4.13415">
        <ele>675</ele>
        <time>2018-09-26T18:31:09Z</time>
      </trkpt>
      <trkpt lat="45.42287" lon="4.13397">
        <ele>673</ele>
        <time>2018-09-26T18:32:09Z</time>
      </trkpt>
      <trkpt lat="45.42295" lon="4.13376">
        <ele>671</ele>
        <time>2018-09-26T18:33:09Z</time>
      </trkpt>
      <trkpt lat="45.42327" lon="4.13341">
        <ele>669</ele>
        <time>2018-09-26T18:34:09Z</time>
      </trkpt>
      <trkpt lat="45.42356" lon="4.13307">
        <ele>666</ele>
        <time>2018-09-26T18:35:09Z</time>
      </trkpt>
      <trkpt lat="45.42372" lon="4.13294">
        <ele>665</ele>
        <time>2018-09-26T18:36:09Z</time>
      </trkpt>
      <trkpt lat="45.42383" lon="4.13287">
        <ele>665</ele>
        <time>2018-09-26T18:37:09Z</time>
      </trkpt>
      <trkpt lat="45.42431" lon="4.13233">
        <ele>663</ele>
        <time>2018-09-26T18:38:09Z</time>
      </trkpt>
      <trkpt lat="45.42471" lon="4.1319">
        <ele>660</ele>
        <time>2018-09-26T18:39:09Z</time>
      </trkpt>
      <trkpt lat="45.42486" lon="4.13169">
        <ele>659</ele>
        <time>2018-09-26T18:40:09Z</time>
      </trkpt>
      <trkpt lat="45.42492" lon="4.13139">
        <ele>658</ele>
        <time>2018-09-26T18:41:09Z</time>
      </trkpt>
      <trkpt lat="45.42495" lon="4.13108">
        <ele>658</ele>
        <time>2018-09-26T18:42:09Z</time>
      </trkpt>
      <trkpt lat="45.42505" lon="4.13069">
        <ele>658</ele>
        <time>2018-09-26T18:43:09Z</time>
      </trkpt>
      <trkpt lat="45.42516" lon="4.13042">
        <ele>657</ele>
        <time>2018-09-26T18:44:09Z</time>
      </trkpt>
      <trkpt lat="45.42678" lon="4.12935">
        <ele>646</ele>
        <time>2018-09-26T18:45:09Z</time>
      </trkpt>
      <trkpt lat="45.42708" lon="4.12939">
        <ele>643</ele>
        <time>2018-09-26T18:46:09Z</time>
      </trkpt>
      <trkpt lat="45.4277" lon="4.12989">
        <ele>634</ele>
        <time>2018-09-26T18:47:09Z</time>
      </trkpt>
      <trkpt lat="45.42817" lon="4.12997">
        <ele>631</ele>
        <time>2018-09-26T18:48:09Z</time>
      </trkpt>
      <trkpt lat="45.42872" lon="4.13013">
        <ele>624</ele>
        <time>2018-09-26T18:49:09Z</time>
      </trkpt>
      <trkpt lat="45.42906" lon="4.13049">
        <ele>618</ele>
        <time>2018-09-26T18:50:09Z</time>
      </trkpt>
      <trkpt lat="45.42923" lon="4.13046">
        <ele>617</ele>
        <time>2018-09-26T18:51:09Z</time>
      </trkpt>
      <trkpt lat="45.42931" lon="4.13028">
        <ele>616</ele>
        <time>2018-09-26T18:52:09Z</time>
      </trkpt>
      <trkpt lat="45.42942" lon="4.13017">
        <ele>615</ele>
        <time>2018-09-26T18:53:09Z</time>
      </trkpt>
      <trkpt lat="45.42958" lon="4.13004">
        <ele>613</ele>
        <time>2018-09-26T18:54:09Z</time>
      </trkpt>
      <trkpt lat="45.42978" lon="4.12979">
        <ele>609</ele>
        <time>2018-09-26T18:55:09Z</time>
      </trkpt>
      <trkpt lat="45.42998" lon="4.12989">
        <ele>606</ele>
        <time>2018-09-26T18:56:09Z</time>
      </trkpt>
      <trkpt lat="45.42974" lon="4.12898">
        <ele>609</ele>
        <time>2018-09-26T18:57:09Z</time>
      </trkpt>
      <trkpt lat="45.42968" lon="4.12867">
        <ele>610</ele>
        <time>2018-09-26T18:58:09Z</time>
      </trkpt>
      <trkpt lat="45.4297" lon="4.12833">
        <ele>610</ele>
        <time>2018-09-26T18:59:09Z</time>
      </trkpt>
      <trkpt lat="45.42973" lon="4.12795">
        <ele>611</ele>
        <time>2018-09-26T19:00:09Z</time>
      </trkpt>
      <trkpt lat="45.42977" lon="4.12746">
        <ele>612</ele>
        <time>2018-09-26T19:01:09Z</time>
      </trkpt>
      <trkpt lat="45.42974" lon="4.12717">
        <ele>614</ele>
        <time>2018-09-26T19:02:09Z</time>
      </trkpt>
      <trkpt lat="45.42959" lon="4.12685">
        <ele>618</ele>
        <time>2018-09-26T19:03:09Z</time>
      </trkpt>
      <trkpt lat="45.42952" lon="4.12662">
        <ele>619</ele>
        <time>2018-09-26T19:04:09Z</time>
      </trkpt>
      <trkpt lat="45.42938" lon="4.12648">
        <ele>620</ele>
        <time>2018-09-26T19:05:09Z</time>
      </trkpt>
      <trkpt lat="45.42919" lon="4.12629">
        <ele>621</ele>
        <time>2018-09-26T19:06:09Z</time>
      </trkpt>
      <trkpt lat="45.42902" lon="4.12618">
        <ele>621</ele>
        <time>2018-09-26T19:07:09Z</time>
      </trkpt>
      <trkpt lat="45.42856" lon="4.12607">
        <ele>620</ele>
        <time>2018-09-26T19:08:09Z</time>
      </trkpt>
      <trkpt lat="45.42883" lon="4.12529">
        <ele>619</ele>
        <time>2018-09-26T19:09:09Z</time>
      </trkpt>
      <trkpt lat="45.42882" lon="4.12499">
        <ele>618</ele>
        <time>2018-09-26T19:10:09Z</time>
      </trkpt>
      <trkpt lat="45.42883" lon="4.1245">
        <ele>616</ele>
        <time>2018-09-26T19:11:09Z</time>
      </trkpt>
      <trkpt lat="45.42885" lon="4.12427">
        <ele>616</ele>
        <time>2018-09-26T19:12:09Z</time>
      </trkpt>
      <trkpt lat="45.42891" lon="4.12365">
        <ele>612</ele>
        <time>2018-09-26T19:13:09Z</time>
      </trkpt>
      <trkpt lat="45.42892" lon="4.12328">
        <ele>610</ele>
        <time>2018-09-26T19:14:09Z</time>
      </trkpt>
      <trkpt lat="45.42882" lon="4.12278">
        <ele>608</ele>
        <time>2018-09-26T19:15:09Z</time>
      </trkpt>
      <trkpt lat="45.42878" lon="4.12236">
        <ele>608</ele>
        <time>2018-09-26T19:16:09Z</time>
      </trkpt>
      <trkpt lat="45.42884" lon="4.12171">
        <ele>606</ele>
        <time>2018-09-26T19:17:09Z</time>
      </trkpt>
      <trkpt lat="45.42894" lon="4.12124">
        <ele>602</ele>
        <time>2018-09-26T19:18:09Z</time>
      </trkpt>
      <trkpt lat="45.42905" lon="4.12104">
        <ele>599</ele>
        <time>2018-09-26T19:19:09Z</time>
      </trkpt>
      <trkpt lat="45.42951" lon="4.12071">
        <ele>593</ele>
        <time>2018-09-26T19:20:09Z</time>
      </trkpt>
      <trkpt lat="45.42979" lon="4.11969">
        <ele>592</ele>
        <time>2018-09-26T19:21:09Z</time>
      </trkpt>
      <trkpt lat="45.43036" lon="4.11947">
        <ele>592</ele>
        <time>2018-09-26T19:22:09Z</time>
      </trkpt>
      <trkpt lat="45.43013" lon="4.11925">
        <ele>594</ele>
        <time>2018-09-26T19:23:09Z</time>
      </trkpt>
      <trkpt lat="45.43009" lon="4.11912">
        <ele>595</ele>
        <time>2018-09-26T19:24:09Z</time>
      </trkpt>
      <trkpt lat="45.43007" lon="4.11894">
        <ele>596</ele>
        <time>2018-09-26T19:25:09Z</time>
      </trkpt>
      <trkpt lat="45.42998" lon="4.11871">
        <ele>598</ele>
        <time>2018-09-26T19:26:09Z</time>
      </trkpt>
      <trkpt lat="45.42939" lon="4.11732">
        <ele>606</ele>
        <time>2018-09-26T19:27:09Z</time>
      </trkpt>
      <trkpt lat="45.42906" lon="4.11648">
        <ele>611</ele>
        <time>2018-09-26T19:28:09Z</time>
      </trkpt>
      <trkpt lat="45.42867" lon="4.11561">
        <ele>615</ele>
        <time>2018-09-26T19:29:09Z</time>
      </trkpt>
      <trkpt lat="45.4285" lon="4.11532">
        <ele>617</ele>
        <time>2018-09-26T19:30:09Z</time>
      </trkpt>
      <trkpt lat="45.42815" lon="4.11494">
        <ele>619</ele>
        <time>2018-09-26T19:31:09Z</time>
      </trkpt>
      <trkpt lat="45.42802" lon="4.11463">
        <ele>620</ele>
        <time>2018-09-26T19:32:09Z</time>
      </trkpt>
      <trkpt lat="45.4279" lon="4.11438">
        <ele>620</ele>
        <time>2018-09-26T19:33:09Z</time>
      </trkpt>
      <trkpt lat="45.42778" lon="4.1142">
        <ele>620</ele>
        <time>2018-09-26T19:34:09Z</time>
      </trkpt>
      <trkpt lat="45.42761" lon="4.11415">
        <ele>619</ele>
        <time>2018-09-26T19:35:09Z</time>
      </trkpt>
      <trkpt lat="45.42743" lon="4.11424">
        <ele>617</ele>
        <time>2018-09-26T19:36:09Z</time>
      </trkpt>
      <trkpt lat="45.4273" lon="4.11432">
        <ele>616</ele>
        <time>2018-09-26T19:37:09Z</time>
      </trkpt>
      <trkpt lat="45.42689" lon="4.11471">
        <ele>610</ele>
        <time>2018-09-26T19:38:09Z</time>
      </trkpt>
      <trkpt lat="45.42648" lon="4.11502">
        <ele>605</ele>
        <time>2018-09-26T19:39:09Z</time>
      </trkpt>
      <trkpt lat="45.42613" lon="4.11543">
        <ele>601</ele>
        <time>2018-09-26T19:40:09Z</time>
      </trkpt>
      <trkpt lat="45.42592" lon="4.11492">
        <ele>601</ele>
        <time>2018-09-26T19:41:09Z</time>
      </trkpt>
      <trkpt lat="45.4257" lon="4.11477">
        <ele>601</ele>
        <time>2018-09-26T19:42:09Z</time>
      </trkpt>
      <trkpt lat="45.42553" lon="4.11457">
        <ele>602</ele>
        <time>2018-09-26T19:43:09Z</time>
      </trkpt>
      <trkpt lat="45.42545" lon="4.11417">
        <ele>606</ele>
        <time>2018-09-26T19:44:09Z</time>
      </trkpt>
      <trkpt lat="45.42535" lon="4.11403">
        <ele>608</ele>
        <time>2018-09-26T19:45:09Z</time>
      </trkpt>
      <trkpt lat="45.42521" lon="4.11383">
        <ele>612</ele>
        <time>2018-09-26T19:46:09Z</time>
      </trkpt>
      <trkpt lat="45.42462" lon="4.11361">
        <ele>622</ele>
        <time>2018-09-26T19:47:09Z</time>
      </trkpt>
      <trkpt lat="45.42429" lon="4.11348">
        <ele>627</ele>
        <time>2018-09-26T19:48:09Z</time>
      </trkpt>
      <trkpt lat="45.42346" lon="4.11317">
        <ele>640</ele>
        <time>2018-09-26T19:49:09Z</time>
      </trkpt>
      <trkpt lat="45.42308" lon="4.11293">
        <ele>642</ele>
        <time>2018-09-26T19:50:09Z</time>
      </trkpt>
      <trkpt lat="45.42248" lon="4.11261">
        <ele>644</ele>
        <time>2018-09-26T19:51:09Z</time>
      </trkpt>
      <trkpt lat="45.42195" lon="4.11259">
        <ele>648</ele>
        <time>2018-09-26T19:52:09Z</time>
      </trkpt>
      <trkpt lat="45.42138" lon="4.11272">
        <ele>651</ele>
        <time>2018-09-26T19:53:09Z</time>
      </trkpt>
      <trkpt lat="45.42105" lon="4.11291">
        <ele>653</ele>
        <time>2018-09-26T19:54:09Z</time>
      </trkpt>
      <trkpt lat="45.42071" lon="4.1131">
        <ele>654</ele>
        <time>2018-09-26T19:55:09Z</time>
      </trkpt>
      <trkpt lat="45.42027" lon="4.11321">
        <ele>656</ele>
        <time>2018-09-26T19:56:09Z</time>
      </trkpt>
      <trkpt lat="45.41982" lon="4.11317">
        <ele>657</ele>
        <time>2018-09-26T19:57:09Z</time>
      </trkpt>
      <trkpt lat="45.41912" lon="4.11291">
        <ele>657</ele>
        <time>2018-09-26T19:58:09Z</time>
      </trkpt>
      <trkpt lat="45.4183" lon="4.11265">
        <ele>661</ele>
        <time>2018-09-26T19:59:09Z</time>
      </trkpt>
      <trkpt lat="45.41811" lon="4.11269">
        <ele>661</ele>
        <time>2018-09-26T20:00:09Z</time>
      </trkpt>
      <trkpt lat="45.4182" lon="4.11307">
        <ele>661</ele>
        <time>2018-09-26T20:01:09Z</time>
      </trkpt>
      <trkpt lat="45.41822" lon="4.11363">
        <ele>659</ele>
        <time>2018-09-26T20:02:09Z</time>
      </trkpt>
      <trkpt lat="45.41823" lon="4.11411">
        <ele>657</ele>
        <time>2018-09-26T20:03:09Z</time>
      </trkpt>
      <trkpt lat="45.4182" lon="4.11432">
        <ele>655</ele>
        <time>2018-09-26T20:04:09Z</time>
      </trkpt>
      <trkpt lat="45.41807" lon="4.11469">
        <ele>652</ele>
        <time>2018-09-26T20:05:09Z</time>
      </trkpt>
      <trkpt lat="45.418" lon="4.11504">
        <ele>649</ele>
        <time>2018-09-26T20:06:09Z</time>
      </trkpt>
      <trkpt lat="45.41796" lon="4.11538">
        <ele>645</ele>
        <time>2018-09-26T20:07:09Z</time>
      </trkpt>
      <trkpt lat="45.41803" lon="4.1156">
        <ele>642</ele>
        <time>2018-09-26T20:08:09Z</time>
      </trkpt>
      <trkpt lat="45.4181" lon="4.1159">
        <ele>639</ele>
        <time>2018-09-26T20:09:09Z</time>
      </trkpt>
      <trkpt lat="45.41808" lon="4.11616">
        <ele>636</ele>
        <time>2018-09-26T20:10:09Z</time>
      </trkpt>
      <trkpt lat="45.41796" lon="4.11636">
        <ele>634</ele>
        <time>2018-09-26T20:11:09Z</time>
      </trkpt>
      <trkpt lat="45.41779" lon="4.11634">
        <ele>634</ele>
        <time>2018-09-26T20:12:09Z</time>
      </trkpt>
      <trkpt lat="45.41764" lon="4.11631">
        <ele>634</ele>
        <time>2018-09-26T20:13:09Z</time>
      </trkpt>
      <trkpt lat="45.41754" lon="4.11617">
        <ele>635</ele>
        <time>2018-09-26T20:14:09Z</time>
      </trkpt>
      <trkpt lat="45.41744" lon="4.11598">
        <ele>637</ele>
        <time>2018-09-26T20:15:09Z</time>
      </trkpt>
      <trkpt lat="45.41734" lon="4.11587">
        <ele>639</ele>
        <time>2018-09-26T20:16:09Z</time>
      </trkpt>
      <trkpt lat="45.41721" lon="4.11588">
        <ele>639</ele>
        <time>2018-09-26T20:17:09Z</time>
      </trkpt>
      <trkpt lat="45.41714" lon="4.11607">
        <ele>636</ele>
        <time>2018-09-26T20:18:09Z</time>
      </trkpt>
      <trkpt lat="45.41704" lon="4.11619">
        <ele>634</ele>
        <time>2018-09-26T20:19:09Z</time>
      </trkpt>
      <trkpt lat="45.41696" lon="4.11633">
        <ele>632</ele>
        <time>2018-09-26T20:20:09Z</time>
      </trkpt>
      <trkpt lat="45.4167" lon="4.11648">
        <ele>629</ele>
        <time>2018-09-26T20:21:09Z</time>
      </trkpt>
      <trkpt lat="45.41631" lon="4.11656">
        <ele>630</ele>
        <time>2018-09-26T20:22:09Z</time>
      </trkpt>
      <trkpt lat="45.41597" lon="4.11666">
        <ele>631</ele>
        <time>2018-09-26T20:23:09Z</time>
      </trkpt>
      <trkpt lat="45.41591" lon="4.11685">
        <ele>628</ele>
        <time>2018-09-26T20:24:09Z</time>
      </trkpt>
      <trkpt lat="45.41598" lon="4.11709">
        <ele>623</ele>
        <time>2018-09-26T20:25:09Z</time>
      </trkpt>
      <trkpt lat="45.41599" lon="4.11726">
        <ele>620</ele>
        <time>2018-09-26T20:26:09Z</time>
      </trkpt>
      <trkpt lat="45.41588" lon="4.11753">
        <ele>617</ele>
        <time>2018-09-26T20:27:09Z</time>
      </trkpt>
      <trkpt lat="45.41581" lon="4.11772">
        <ele>617</ele>
        <time>2018-09-26T20:28:09Z</time>
      </trkpt>
      <trkpt lat="45.41585" lon="4.11814">
        <ele>617</ele>
        <time>2018-09-26T20:29:09Z</time>
      </trkpt>
      <trkpt lat="45.41612" lon="4.11833">
        <ele>615</ele>
        <time>2018-09-26T20:30:09Z</time>
      </trkpt>
      <trkpt lat="45.41608" lon="4.11865">
        <ele>618</ele>
        <time>2018-09-26T20:31:09Z</time>
      </trkpt>
      <trkpt lat="45.41607" lon="4.11897">
        <ele>622</ele>
        <time>2018-09-26T20:32:09Z</time>
      </trkpt>
      <trkpt lat="45.41609" lon="4.11925">
        <ele>624</ele>
        <time>2018-09-26T20:33:09Z</time>
      </trkpt>
      <trkpt lat="45.4161" lon="4.11952">
        <ele>626</ele>
        <time>2018-09-26T20:34:09Z</time>
      </trkpt>
      <trkpt lat="45.41602" lon="4.11963">
        <ele>627</ele>
        <time>2018-09-26T20:35:09Z</time>
      </trkpt>
      <trkpt lat="45.41593" lon="4.11973">
        <ele>627</ele>
        <time>2018-09-26T20:36:09Z</time>
      </trkpt>
      <trkpt lat="45.4156" lon="4.12014">
        <ele>631</ele>
        <time>2018-09-26T20:37:09Z</time>
      </trkpt>
      <trkpt lat="45.41516" lon="4.12079">
        <ele>634</ele>
        <time>2018-09-26T20:38:09Z</time>
      </trkpt>
      <trkpt lat="45.41496" lon="4.12125">
        <ele>638</ele>
        <time>2018-09-26T20:39:09Z</time>
      </trkpt>
      <trkpt lat="45.41472" lon="4.12185">
        <ele>645</ele>
        <time>2018-09-26T20:40:09Z</time>
      </trkpt>
      <trkpt lat="45.41464" lon="4.12204">
        <ele>646</ele>
        <time>2018-09-26T20:41:09Z</time>
      </trkpt>
      <trkpt lat="45.41444" lon="4.12254">
        <ele>649</ele>
        <time>2018-09-26T20:42:09Z</time>
      </trkpt>
      <trkpt lat="45.41432" lon="4.123">
        <ele>654</ele>
        <time>2018-09-26T20:43:09Z</time>
      </trkpt>
      <trkpt lat="45.41428" lon="4.12338">
        <ele>658</ele>
        <time>2018-09-26T20:44:09Z</time>
      </trkpt>
      <trkpt lat="45.41417" lon="4.1239">
        <ele>663</ele>
        <time>2018-09-26T20:45:09Z</time>
      </trkpt>
      <trkpt lat="45.4142" lon="4.12445">
        <ele>670</ele>
        <time>2018-09-26T20:46:09Z</time>
      </trkpt>
      <trkpt lat="45.41416" lon="4.12473">
        <ele>673</ele>
        <time>2018-09-26T20:47:09Z</time>
      </trkpt>
      <trkpt lat="45.41405" lon="4.12514">
        <ele>677</ele>
        <time>2018-09-26T20:48:09Z</time>
      </trkpt>
      <trkpt lat="45.41401" lon="4.12535">
        <ele>680</ele>
        <time>2018-09-26T20:49:09Z</time>
      </trkpt>
      <trkpt lat="45.41388" lon="4.12559">
        <ele>683</ele>
        <time>2018-09-26T20:50:09Z</time>
      </trkpt>
      <trkpt lat="45.41375" lon="4.12582">
        <ele>685</ele>
        <time>2018-09-26T20:51:09Z</time>
      </trkpt>
      <trkpt lat="45.4137" lon="4.126">
        <ele>687</ele>
        <time>2018-09-26T20:52:09Z</time>
      </trkpt>
      <trkpt lat="45.41367" lon="4.12616">
        <ele>688</ele>
        <time>2018-09-26T20:53:09Z</time>
      </trkpt>
      <trkpt lat="45.41371" lon="4.12628">
        <ele>690</ele>
        <time>2018-09-26T20:54:09Z</time>
      </trkpt>
      <trkpt lat="45.41401" lon="4.12633">
        <ele>691</ele>
        <time>2018-09-26T20:55:09Z</time>
      </trkpt>
      <trkpt lat="45.41401" lon="4.12658">
        <ele>694</ele>
        <time>2018-09-26T20:56:09Z</time>
      </trkpt>
      <trkpt lat="45.41399" lon="4.12713">
        <ele>698</ele>
        <time>2018-09-26T20:57:09Z</time>
      </trkpt>
      <trkpt lat="45.41405" lon="4.12754">
        <ele>701</ele>
        <time>2018-09-26T20:58:09Z</time>
      </trkpt>
      <trkpt lat="45.41412" lon="4.12787">
        <ele>703</ele>
        <time>2018-09-26T20:59:09Z</time>
      </trkpt>
      <trkpt lat="45.41425" lon="4.12819">
        <ele>705</ele>
        <time>2018-09-26T21:00:09Z</time>
      </trkpt>
      <trkpt lat="45.41433" lon="4.12846">
        <ele>706</ele>
        <time>2018-09-26T21:01:09Z</time>
      </trkpt>
      <trkpt lat="45.41444" lon="4.1287">
        <ele>707</ele>
        <time>2018-09-26T21:02:09Z</time>
      </trkpt>
      <trkpt lat="45.41467" lon="4.12878">
        <ele>709</ele>
        <time>2018-09-26T21:03:09Z</time>
      </trkpt>
      <trkpt lat="45.41469" lon="4.12903">
        <ele>710</ele>
        <time>2018-09-26T21:04:09Z</time>
      </trkpt>
      <trkpt lat="45.4147" lon="4.12945">
        <ele>711</ele>
        <time>2018-09-26T21:05:09Z</time>
      </trkpt>
      <trkpt lat="45.41471" lon="4.13">
        <ele>713</ele>
        <time>2018-09-26T21:06:09Z</time>
      </trkpt>
      <trkpt lat="45.41474" lon="4.13023">
        <ele>714</ele>
        <time>2018-09-26T21:07:09Z</time>
      </trkpt>
      <trkpt lat="45.41481" lon="4.13046">
        <ele>714</ele>
        <time>2018-09-26T21:08:09Z</time>
      </trkpt>
      <trkpt lat="45.41479" lon="4.13074">
        <ele>715</ele>
        <time>2018-09-26T21:09:09Z</time>
      </trkpt>
      <trkpt lat="45.41468" lon="4.13095">
        <ele>715</ele>
        <time>2018-09-26T21:10:09Z</time>
      </trkpt>
      <trkpt lat="45.41455" lon="4.13115">
        <ele>715</ele>
        <time>2018-09-26T21:11:09Z</time>
      </trkpt>
      <trkpt lat="45.41445" lon="4.13136">
        <ele>715</ele>
        <time>2018-09-26T21:12:09Z</time>
      </trkpt>
      <trkpt lat="45.41375" lon="4.13139">
        <ele>717</ele>
        <time>2018-09-26T21:13:09Z</time>
      </trkpt>
      <trkpt lat="45.41324" lon="4.13145">
        <ele>719</ele>
        <time>2018-09-26T21:14:09Z</time>
      </trkpt>
      <trkpt lat="45.41284" lon="4.13148">
        <ele>720</ele>
        <time>2018-09-26T21:15:09Z</time>
      </trkpt>
      <trkpt lat="45.41222" lon="4.13157">
        <ele>722</ele>
        <time>2018-09-26T21:16:09Z</time>
      </trkpt>
      <trkpt lat="45.41194" lon="4.13141">
        <ele>723</ele>
        <time>2018-09-26T21:17:09Z</time>
      </trkpt>
      <trkpt lat="45.41191" lon="4.13171">
        <ele>722</ele>
        <time>2018-09-26T21:18:09Z</time>
      </trkpt>
      <trkpt lat="45.41134" lon="4.13196">
        <ele>722</ele>
        <time>2018-09-26T21:19:09Z</time>
      </trkpt>
      <trkpt lat="45.41075" lon="4.1321">
        <ele>721</ele>
        <time>2018-09-26T21:20:09Z</time>
      </trkpt>
      <trkpt lat="45.41045" lon="4.13213">
        <ele>721</ele>
        <time>2018-09-26T21:21:09Z</time>
      </trkpt>
      <trkpt lat="45.41012" lon="4.13226">
        <ele>721</ele>
        <time>2018-09-26T21:22:09Z</time>
      </trkpt>
      <trkpt lat="45.40972" lon="4.13219">
        <ele>721</ele>
        <time>2018-09-26T21:23:09Z</time>
      </trkpt>
      <trkpt lat="45.40915" lon="4.13215">
        <ele>720</ele>
        <time>2018-09-26T21:24:09Z</time>
      </trkpt>
      <trkpt lat="45.40884" lon="4.1322">
        <ele>721</ele>
        <time>2018-09-26T21:25:09Z</time>
      </trkpt>
      <trkpt lat="45.40872" lon="4.13239">
        <ele>721</ele>
        <time>2018-09-26T21:26:09Z</time>
      </trkpt>
      <trkpt lat="45.4086" lon="4.13254">
        <ele>721</ele>
        <time>2018-09-26T21:27:09Z</time>
      </trkpt>
      <trkpt lat="45.40814" lon="4.13253">
        <ele>723</ele>
        <time>2018-09-26T21:28:09Z</time>
      </trkpt>
      <trkpt lat="45.40712" lon="4.13248">
        <ele>727</ele>
        <time>2018-09-26T21:29:09Z</time>
      </trkpt>
      <trkpt lat="45.40688" lon="4.13289">
        <ele>727</ele>
        <time>2018-09-26T21:30:09Z</time>
      </trkpt>
      <trkpt lat="45.40533" lon="4.13262">
        <ele>731</ele>
        <time>2018-09-26T21:31:09Z</time>
      </trkpt>
      <trkpt lat="45.40515" lon="4.13253">
        <ele>732</ele>
        <time>2018-09-26T21:32:09Z</time>
      </trkpt>
      <trkpt lat="45.40459" lon="4.13199">
        <ele>734</ele>
        <time>2018-09-26T21:33:09Z</time>
      </trkpt>
      <trkpt lat="45.40439" lon="4.13201">
        <ele>733</ele>
        <time>2018-09-26T21:34:09Z</time>
      </trkpt>
      <trkpt lat="45.40401" lon="4.13204">
        <ele>730</ele>
        <time>2018-09-26T21:35:09Z</time>
      </trkpt>
      <trkpt lat="45.4037" lon="4.13194">
        <ele>728</ele>
        <time>2018-09-26T21:36:09Z</time>
      </trkpt>
      <trkpt lat="45.40328" lon="4.13173">
        <ele>726</ele>
        <time>2018-09-26T21:37:09Z</time>
      </trkpt>
      <trkpt lat="45.4028" lon="4.13134">
        <ele>722</ele>
        <time>2018-09-26T21:38:09Z</time>
      </trkpt>
      <trkpt lat="45.40227" lon="4.131">
        <ele>718</ele>
        <time>2018-09-26T21:39:09Z</time>
      </trkpt>
      <trkpt lat="45.40181" lon="4.13063">
        <ele>716</ele>
        <time>2018-09-26T21:40:09Z</time>
      </trkpt>
      <trkpt lat="45.40168" lon="4.13037">
        <ele>715</ele>
        <time>2018-09-26T21:41:09Z</time>
      </trkpt>
      <trkpt lat="45.40161" lon="4.13022">
        <ele>715</ele>
        <time>2018-09-26T21:42:09Z</time>
      </trkpt>
      <trkpt lat="45.40156" lon="4.12989">
        <ele>716</ele>
        <time>2018-09-26T21:43:09Z</time>
      </trkpt>
      <trkpt lat="45.40145" lon="4.12917">
        <ele>718</ele>
        <time>2018-09-26T21:44:09Z</time>
      </trkpt>
      <trkpt lat="45.40138" lon="4.12886">
        <ele>719</ele>
        <time>2018-09-26T21:45:09Z</time>
      </trkpt>
      <trkpt lat="45.40128" lon="4.12864">
        <ele>719</ele>
        <time>2018-09-26T21:46:09Z</time>
      </trkpt>
      <trkpt lat="45.40115" lon="4.12847">
        <ele>719</ele>
        <time>2018-09-26T21:47:09Z</time>
      </trkpt>
      <trkpt lat="45.40094" lon="4.12813">
        <ele>719</ele>
        <time>2018-09-26T21:48:09Z</time>
      </trkpt>
      <trkpt lat="45.40091" lon="4.12787">
        <ele>720</ele>
        <time>2018-09-26T21:49:09Z</time>
      </trkpt>
      <trkpt lat="45.40081" lon="4.12723">
        <ele>721</ele>
        <time>2018-09-26T21:50:09Z</time>
      </trkpt>
      <trkpt lat="45.40076" lon="4.12658">
        <ele>724</ele>
        <time>2018-09-26T21:51:09Z</time>
      </trkpt>
      <trkpt lat="45.40073" lon="4.12584">
        <ele>725</ele>
        <time>2018-09-26T21:52:09Z</time>
      </trkpt>
      <trkpt lat="45.40074" lon="4.12556">
        <ele>726</ele>
        <time>2018-09-26T21:53:09Z</time>
      </trkpt>
      <trkpt lat="45.40073" lon="4.12501">
        <ele>726</ele>
        <time>2018-09-26T21:54:09Z</time>
      </trkpt>
      <trkpt lat="45.40077" lon="4.12456">
        <ele>728</ele>
        <time>2018-09-26T21:55:09Z</time>
      </trkpt>
      <trkpt lat="45.40077" lon="4.12399">
        <ele>730</ele>
        <time>2018-09-26T21:56:09Z</time>
      </trkpt>
      <trkpt lat="45.40079" lon="4.12366">
        <ele>731</ele>
        <time>2018-09-26T21:57:09Z</time>
      </trkpt>
      <trkpt lat="45.40076" lon="4.12293">
        <ele>732</ele>
        <time>2018-09-26T21:58:09Z</time>
      </trkpt>
      <trkpt lat="45.40072" lon="4.12253">
        <ele>733</ele>
        <time>2018-09-26T21:59:09Z</time>
      </trkpt>
      <trkpt lat="45.40065" lon="4.12234">
        <ele>734</ele>
        <time>2018-09-26T22:00:09Z</time>
      </trkpt>
      <trkpt lat="45.40078" lon="4.12213">
        <ele>734</ele>
        <time>2018-09-26T22:01:09Z</time>
      </trkpt>
      <trkpt lat="45.40087" lon="4.12175">
        <ele>734</ele>
        <time>2018-09-26T22:02:09Z</time>
      </trkpt>
      <trkpt lat="45.40107" lon="4.12138">
        <ele>734</ele>
        <time>2018-09-26T22:03:09Z</time>
      </trkpt>
      <trkpt lat="45.40079" lon="4.12078">
        <ele>731</ele>
        <time>2018-09-26T22:04:09Z</time>
      </trkpt>
      <trkpt lat="45.4007" lon="4.1205">
        <ele>730</ele>
        <time>2018-09-26T22:05:09Z</time>
      </trkpt>
      <trkpt lat="45.40052" lon="4.11996">
        <ele>730</ele>
        <time>2018-09-26T22:06:09Z</time>
      </trkpt>
      <trkpt lat="45.40041" lon="4.11973">
        <ele>728</ele>
        <time>2018-09-26T22:07:09Z</time>
      </trkpt>
      <trkpt lat="45.4002" lon="4.1194">
        <ele>727</ele>
        <time>2018-09-26T22:08:09Z</time>
      </trkpt>
      <trkpt lat="45.39992" lon="4.11902">
        <ele>728</ele>
        <time>2018-09-26T22:09:09Z</time>
      </trkpt>
      <trkpt lat="45.39987" lon="4.11889">
        <ele>729</ele>
        <time>2018-09-26T22:10:09Z</time>
      </trkpt>
      <trkpt lat="45.39987" lon="4.11869">
        <ele>729</ele>
        <time>2018-09-26T22:11:09Z</time>
      </trkpt>
      <trkpt lat="45.39992" lon="4.11856">
        <ele>728</ele>
        <time>2018-09-26T22:12:09Z</time>
      </trkpt>
      <trkpt lat="45.40017" lon="4.11835">
        <ele>726</ele>
        <time>2018-09-26T22:13:09Z</time>
      </trkpt>
      <trkpt lat="45.40025" lon="4.1181">
        <ele>727</ele>
        <time>2018-09-26T22:14:09Z</time>
      </trkpt>
      <trkpt lat="45.40022" lon="4.11791">
        <ele>729</ele>
        <time>2018-09-26T22:15:09Z</time>
      </trkpt>
      <trkpt lat="45.40022" lon="4.11767">
        <ele>732</ele>
        <time>2018-09-26T22:16:09Z</time>
      </trkpt>
      <trkpt lat="45.40023" lon="4.11747">
        <ele>733</ele>
        <time>2018-09-26T22:17:09Z</time>
      </trkpt>
      <trkpt lat="45.40028" lon="4.1171">
        <ele>734</ele>
        <time>2018-09-26T22:18:09Z</time>
      </trkpt>
      <trkpt lat="45.40023" lon="4.11695">
        <ele>736</ele>
        <time>2018-09-26T22:19:09Z</time>
      </trkpt>
      <trkpt lat="45.40037" lon="4.1167">
        <ele>736</ele>
        <time>2018-09-26T22:20:09Z</time>
      </trkpt>
      <trkpt lat="45.40042" lon="4.11654">
        <ele>736</ele>
        <time>2018-09-26T22:21:09Z</time>
      </trkpt>
      <trkpt lat="45.40037" lon="4.1164">
        <ele>735</ele>
        <time>2018-09-26T22:22:09Z</time>
      </trkpt>
      <trkpt lat="45.40032" lon="4.11624">
        <ele>734</ele>
        <time>2018-09-26T22:23:09Z</time>
      </trkpt>
      <trkpt lat="45.40026" lon="4.11571">
        <ele>733</ele>
        <time>2018-09-26T22:24:09Z</time>
      </trkpt>
      <trkpt lat="45.40022" lon="4.11538">
        <ele>735</ele>
        <time>2018-09-26T22:25:09Z</time>
      </trkpt>
      <trkpt lat="45.40035" lon="4.11486">
        <ele>735</ele>
        <time>2018-09-26T22:26:09Z</time>
      </trkpt>
      <trkpt lat="45.40046" lon="4.11431">
        <ele>736</ele>
        <time>2018-09-26T22:27:09Z</time>
      </trkpt>
      <trkpt lat="45.40055" lon="4.11375">
        <ele>737</ele>
        <time>2018-09-26T22:28:09Z</time>
      </trkpt>
      <trkpt lat="45.40057" lon="4.11321">
        <ele>738</ele>
        <time>2018-09-26T22:29:09Z</time>
      </trkpt>
      <trkpt lat="45.40052" lon="4.11288">
        <ele>738</ele>
        <time>2018-09-26T22:30:09Z</time>
      </trkpt>
      <trkpt lat="45.40043" lon="4.11255">
        <ele>738</ele>
        <time>2018-09-26T22:31:09Z</time>
      </trkpt>
      <trkpt lat="45.40027" lon="4.1125">
        <ele>738</ele>
        <time>2018-09-26T22:32:09Z</time>
      </trkpt>
      <trkpt lat="45.39994" lon="4.11261">
        <ele>740</ele>
        <time>2018-09-26T22:33:09Z</time>
      </trkpt>
      <trkpt lat="45.39978" lon="4.11274">
        <ele>742</ele>
        <time>2018-09-26T22:34:09Z</time>
      </trkpt>
      <trkpt lat="45.39948" lon="4.11292">
        <ele>744</ele>
        <time>2018-09-26T22:35:09Z</time>
      </trkpt>
      <trkpt lat="45.39925" lon="4.1131">
        <ele>747</ele>
        <time>2018-09-26T22:36:09Z</time>
      </trkpt>
      <trkpt lat="45.39894" lon="4.11328">
        <ele>750</ele>
        <time>2018-09-26T22:37:09Z</time>
      </trkpt>
      <trkpt lat="45.39856" lon="4.11346">
        <ele>752</ele>
        <time>2018-09-26T22:38:09Z</time>
      </trkpt>
      <trkpt lat="45.39843" lon="4.11358">
        <ele>752</ele>
        <time>2018-09-26T22:39:09Z</time>
      </trkpt>
      <trkpt lat="45.3982" lon="4.11386">
        <ele>755</ele>
        <time>2018-09-26T22:40:09Z</time>
      </trkpt>
      <trkpt lat="45.39813" lon="4.11403">
        <ele>756</ele>
        <time>2018-09-26T22:41:09Z</time>
      </trkpt>
      <trkpt lat="45.39784" lon="4.1146">
        <ele>758</ele>
        <time>2018-09-26T22:42:09Z</time>
      </trkpt>
      <trkpt lat="45.39764" lon="4.11487">
        <ele>759</ele>
        <time>2018-09-26T22:43:09Z</time>
      </trkpt>
      <trkpt lat="45.39738" lon="4.11515">
        <ele>760</ele>
        <time>2018-09-26T22:44:09Z</time>
      </trkpt>
      <trkpt lat="45.39693" lon="4.11405">
        <ele>760</ele>
        <time>2018-09-26T22:45:09Z</time>
      </trkpt>
      <trkpt lat="45.39648" lon="4.11374">
        <ele>759</ele>
        <time>2018-09-26T22:46:09Z</time>
      </trkpt>
      <trkpt lat="45.39633" lon="4.1137">
        <ele>760</ele>
        <time>2018-09-26T22:47:09Z</time>
      </trkpt>
      <trkpt lat="45.396" lon="4.11358">
        <ele>761</ele>
        <time>2018-09-26T22:48:09Z</time>
      </trkpt>
      <trkpt lat="45.39587" lon="4.11344">
        <ele>761</ele>
        <time>2018-09-26T22:49:09Z</time>
      </trkpt>
      <trkpt lat="45.39563" lon="4.11324">
        <ele>763</ele>
        <time>2018-09-26T22:50:09Z</time>
      </trkpt>
      <trkpt lat="45.39533" lon="4.11292">
        <ele>766</ele>
        <time>2018-09-26T22:51:09Z</time>
      </trkpt>
      <trkpt lat="45.395" lon="4.11261">
        <ele>769</ele>
        <time>2018-09-26T22:52:09Z</time>
      </trkpt>
      <trkpt lat="45.39465" lon="4.11228">
        <ele>770</ele>
        <time>2018-09-26T22:53:09Z</time>
      </trkpt>
      <trkpt lat="45.39444" lon="4.11214">
        <ele>770</ele>
        <time>2018-09-26T22:54:09Z</time>
      </trkpt>
      <trkpt lat="45.39395" lon="4.11194">
        <ele>770</ele>
        <time>2018-09-26T22:55:09Z</time>
      </trkpt>
      <trkpt lat="45.39372" lon="4.11187">
        <ele>770</ele>
        <time>2018-09-26T22:56:09Z</time>
      </trkpt>
      <trkpt lat="45.39295" lon="4.11145">
        <ele>770</ele>
        <time>2018-09-26T22:57:09Z</time>
      </trkpt>
      <trkpt lat="45.39262" lon="4.11129">
        <ele>771</ele>
        <time>2018-09-26T22:58:09Z</time>
      </trkpt>
      <trkpt lat="45.3924" lon="4.11092">
        <ele>769</ele>
        <time>2018-09-26T22:59:09Z</time>
      </trkpt>
      <trkpt lat="45.39205" lon="4.1109">
        <ele>770</ele>
        <time>2018-09-26T23:00:09Z</time>
      </trkpt>
      <trkpt lat="45.39172" lon="4.11093">
        <ele>770</ele>
        <time>2018-09-26T23:01:09Z</time>
      </trkpt>
      <trkpt lat="45.39096" lon="4.11097">
        <ele>772</ele>
        <time>2018-09-26T23:02:09Z</time>
      </trkpt>
      <trkpt lat="45.39088" lon="4.11109">
        <ele>772</ele>
        <time>2018-09-26T23:03:09Z</time>
      </trkpt>
      <trkpt lat="45.3907" lon="4.11074">
        <ele>773</ele>
        <time>2018-09-26T23:04:09Z</time>
      </trkpt>
      <trkpt lat="45.3905" lon="4.11005">
        <ele>774</ele>
        <time>2018-09-26T23:05:09Z</time>
      </trkpt>
      <trkpt lat="45.39028" lon="4.10947">
        <ele>778</ele>
        <time>2018-09-26T23:06:09Z</time>
      </trkpt>
      <trkpt lat="45.39021" lon="4.10923">
        <ele>780</ele>
        <time>2018-09-26T23:07:09Z</time>
      </trkpt>
      <trkpt lat="45.38994" lon="4.10875">
        <ele>783</ele>
        <time>2018-09-26T23:08:09Z</time>
      </trkpt>
      <trkpt lat="45.38963" lon="4.10817">
        <ele>786</ele>
        <time>2018-09-26T23:09:09Z</time>
      </trkpt>
      <trkpt lat="45.38949" lon="4.10792">
        <ele>787</ele>
        <time>2018-09-26T23:10:09Z</time>
      </trkpt>
      <trkpt lat="45.38922" lon="4.10745">
        <ele>791</ele>
        <time>2018-09-26T23:11:09Z</time>
      </trkpt>
      <trkpt lat="45.38913" lon="4.10677">
        <ele>794</ele>
        <time>2018-09-26T23:12:09Z</time>
      </trkpt>
      <trkpt lat="45.38916" lon="4.1065">
        <ele>795</ele>
        <time>2018-09-26T23:13:09Z</time>
      </trkpt>
      <trkpt lat="45.38911" lon="4.10623">
        <ele>797</ele>
        <time>2018-09-26T23:14:09Z</time>
      </trkpt>
      <trkpt lat="45.38901" lon="4.10606">
        <ele>798</ele>
        <time>2018-09-26T23:15:09Z</time>
      </trkpt>
      <trkpt lat="45.38904" lon="4.10563">
        <ele>800</ele>
        <time>2018-09-26T23:16:09Z</time>
      </trkpt>
      <trkpt lat="45.3891" lon="4.10524">
        <ele>801</ele>
        <time>2018-09-26T23:17:09Z</time>
      </trkpt>
      <trkpt lat="45.38913" lon="4.10502">
        <ele>802</ele>
        <time>2018-09-26T23:18:09Z</time>
      </trkpt>
      <trkpt lat="45.38905" lon="4.10459">
        <ele>802</ele>
        <time>2018-09-26T23:19:09Z</time>
      </trkpt>
      <trkpt lat="45.38897" lon="4.10409">
        <ele>802</ele>
        <time>2018-09-26T23:20:09Z</time>
      </trkpt>
      <trkpt lat="45.38893" lon="4.10371">
        <ele>802</ele>
        <time>2018-09-26T23:21:09Z</time>
      </trkpt>
      <trkpt lat="45.38898" lon="4.10325">
        <ele>803</ele>
        <time>2018-09-26T23:22:09Z</time>
      </trkpt>
      <trkpt lat="45.38901" lon="4.1028">
        <ele>804</ele>
        <time>2018-09-26T23:23:09Z</time>
      </trkpt>
      <trkpt lat="45.38904" lon="4.10243">
        <ele>805</ele>
        <time>2018-09-26T23:24:09Z</time>
      </trkpt>
      <trkpt lat="45.38909" lon="4.10204">
        <ele>806</ele>
        <time>2018-09-26T23:25:09Z</time>
      </trkpt>
      <trkpt lat="45.3892" lon="4.1016">
        <ele>806</ele>
        <time>2018-09-26T23:26:09Z</time>
      </trkpt>
      <trkpt lat="45.3895" lon="4.10109">
        <ele>805</ele>
        <time>2018-09-26T23:27:09Z</time>
      </trkpt>
      <trkpt lat="45.38969" lon="4.10073">
        <ele>803</ele>
        <time>2018-09-26T23:28:09Z</time>
      </trkpt>
      <trkpt lat="45.38993" lon="4.1004">
        <ele>800</ele>
        <time>2018-09-26T23:29:09Z</time>
      </trkpt>
      <trkpt lat="45.39021" lon="4.10019">
        <ele>798</ele>
        <time>2018-09-26T23:30:09Z</time>
      </trkpt>
      <trkpt lat="45.39074" lon="4.10003">
        <ele>794</ele>
        <time>2018-09-26T23:31:09Z</time>
      </trkpt>
      <trkpt lat="45.3911" lon="4.09993">
        <ele>790</ele>
        <time>2018-09-26T23:32:09Z</time>
      </trkpt>
      <trkpt lat="45.39131" lon="4.09973">
        <ele>789</ele>
        <time>2018-09-26T23:33:09Z</time>
      </trkpt>
      <trkpt lat="45.39139" lon="4.09947">
        <ele>790</ele>
        <time>2018-09-26T23:34:09Z</time>
      </trkpt>
      <trkpt lat="45.39175" lon="4.09941">
        <ele>788</ele>
        <time>2018-09-26T23:35:09Z</time>
      </trkpt>
      <trkpt lat="45.39201" lon="4.0992">
        <ele>790</ele>
        <time>2018-09-26T23:36:09Z</time>
      </trkpt>
      <trkpt lat="45.39277" lon="4.09868">
        <ele>797</ele>
        <time>2018-09-26T23:37:09Z</time>
      </trkpt>
      <trkpt lat="45.39301" lon="4.09846">
        <ele>800</ele>
        <time>2018-09-26T23:38:09Z</time>
      </trkpt>
      <trkpt lat="45.39321" lon="4.09823">
        <ele>803</ele>
        <time>2018-09-26T23:39:09Z</time>
      </trkpt>
      <trkpt lat="45.39363" lon="4.09785">
        <ele>801</ele>
        <time>2018-09-26T23:40:09Z</time>
      </trkpt>
      <trkpt lat="45.39356" lon="4.09756">
        <ele>803</ele>
        <time>2018-09-26T23:41:09Z</time>
      </trkpt>
      <trkpt lat="45.39353" lon="4.09729">
        <ele>803</ele>
        <time>2018-09-26T23:42:09Z</time>
      </trkpt>
      <trkpt lat="45.39332" lon="4.09721">
        <ele>806</ele>
        <time>2018-09-26T23:43:09Z</time>
      </trkpt>
      <trkpt lat="45.39318" lon="4.09746">
        <ele>807</ele>
        <time>2018-09-26T23:44:09Z</time>
      </trkpt>
      <trkpt lat="45.39298" lon="4.09761">
        <ele>807</ele>
        <time>2018-09-26T23:45:09Z</time>
      </trkpt>
      <trkpt lat="45.39262" lon="4.09747">
        <ele>809</ele>
        <time>2018-09-26T23:46:09Z</time>
      </trkpt>
      <trkpt lat="45.39244" lon="4.09719">
        <ele>812</ele>
        <time>2018-09-26T23:47:09Z</time>
      </trkpt>
      <trkpt lat="45.39226" lon="4.09698">
        <ele>815</ele>
        <time>2018-09-26T23:48:09Z</time>
      </trkpt>
      <trkpt lat="45.39214" lon="4.0967">
        <ele>820</ele>
        <time>2018-09-26T23:49:09Z</time>
      </trkpt>
      <trkpt lat="45.39216" lon="4.09647">
        <ele>821</ele>
        <time>2018-09-26T23:50:09Z</time>
      </trkpt>
      <trkpt lat="45.39226" lon="4.09617">
        <ele>822</ele>
        <time>2018-09-26T23:51:09Z</time>
      </trkpt>
      <trkpt lat="45.39236" lon="4.0958">
        <ele>824</ele>
        <time>2018-09-26T23:52:09Z</time>
      </trkpt>
      <trkpt lat="45.39243" lon="4.09549">
        <ele>825</ele>
        <time>2018-09-26T23:53:09Z</time>
      </trkpt>
      <trkpt lat="45.3925" lon="4.09512">
        <ele>827</ele>
        <time>2018-09-26T23:54:09Z</time>
      </trkpt>
      <trkpt lat="45.39257" lon="4.09423">
        <ele>829</ele>
        <time>2018-09-26T23:55:09Z</time>
      </trkpt>
      <trkpt lat="45.39252" lon="4.09402">
        <ele>830</ele>
        <time>2018-09-26T23:56:09Z</time>
      </trkpt>
      <trkpt lat="45.39236" lon="4.09376">
        <ele>831</ele>
        <time>2018-09-26T23:57:09Z</time>
      </trkpt>
      <trkpt lat="45.39219" lon="4.0935">
        <ele>832</ele>
        <time>2018-09-26T23:58:09Z</time>
      </trkpt>
      <trkpt lat="45.39202" lon="4.09344">
        <ele>832</ele>
        <time>2018-09-26T23:59:09Z</time>
      </trkpt>
      <trkpt lat="45.39168" lon="4.09337">
        <ele>833</ele>
        <time>2018-09-27T00:00:09Z</time>
      </trkpt>
      <trkpt lat="45.39125" lon="4.09331">
        <ele>833</ele>
        <time>2018-09-27T00:01:09Z</time>
      </trkpt>
      <trkpt lat="45.39102" lon="4.09333">
        <ele>834</ele>
        <time>2018-09-27T00:02:09Z</time>
      </trkpt>
      <trkpt lat="45.39138" lon="4.09299">
        <ele>833</ele>
        <time>2018-09-27T00:03:09Z</time>
      </trkpt>
      <trkpt lat="45.39249" lon="4.09185">
        <ele>821</ele>
        <time>2018-09-27T00:04:09Z</time>
      </trkpt>
      <trkpt lat="45.393" lon="4.09141">
        <ele>817</ele>
        <time>2018-09-27T00:05:09Z</time>
      </trkpt>
      <trkpt lat="45.39317" lon="4.09099">
        <ele>811</ele>
        <time>2018-09-27T00:06:09Z</time>
      </trkpt>
      <trkpt lat="45.3934" lon="4.09044">
        <ele>807</ele>
        <time>2018-09-27T00:07:09Z</time>
      </trkpt>
      <trkpt lat="45.39351" lon="4.09025">
        <ele>806</ele>
        <time>2018-09-27T00:08:09Z</time>
      </trkpt>
      <trkpt lat="45.3941" lon="4.08957">
        <ele>800</ele>
        <time>2018-09-27T00:09:09Z</time>
      </trkpt>
      <trkpt lat="45.39447" lon="4.0892">
        <ele>794</ele>
        <time>2018-09-27T00:10:09Z</time>
      </trkpt>
      <trkpt lat="45.39484" lon="4.08889">
        <ele>787</ele>
        <time>2018-09-27T00:11:09Z</time>
      </trkpt>
      <trkpt lat="45.39519" lon="4.08878">
        <ele>783</ele>
        <time>2018-09-27T00:12:09Z</time>
      </trkpt>
      <trkpt lat="45.39577" lon="4.08868">
        <ele>777</ele>
        <time>2018-09-27T00:13:09Z</time>
      </trkpt>
      <trkpt lat="45.39639" lon="4.08898">
        <ele>771</ele>
        <time>2018-09-27T00:14:09Z</time>
      </trkpt>
      <trkpt lat="45.39667" lon="4.08923">
        <ele>770</ele>
        <time>2018-09-27T00:15:09Z</time>
      </trkpt>
      <trkpt lat="45.3969" lon="4.08937">
        <ele>766</ele>
        <time>2018-09-27T00:16:09Z</time>
      </trkpt>
      <trkpt lat="45.3971" lon="4.08948">
        <ele>763</ele>
        <time>2018-09-27T00:17:09Z</time>
      </trkpt>
      <trkpt lat="45.39731" lon="4.0896">
        <ele>759</ele>
        <time>2018-09-27T00:18:09Z</time>
      </trkpt>
      <trkpt lat="45.39754" lon="4.0899">
        <ele>757</ele>
        <time>2018-09-27T00:19:09Z</time>
      </trkpt>
      <trkpt lat="45.39787" lon="4.09007">
        <ele>753</ele>
        <time>2018-09-27T00:20:09Z</time>
      </trkpt>
      <trkpt lat="45.39815" lon="4.09035">
        <ele>751</ele>
        <time>2018-09-27T00:21:09Z</time>
      </trkpt>
      <trkpt lat="45.39831" lon="4.09063">
        <ele>750</ele>
        <time>2018-09-27T00:22:09Z</time>
      </trkpt>
      <trkpt lat="45.39844" lon="4.09095">
        <ele>749</ele>
        <time>2018-09-27T00:23:09Z</time>
      </trkpt>
      <trkpt lat="45.3985" lon="4.09039">
        <ele>746</ele>
        <time>2018-09-27T00:24:09Z</time>
      </trkpt>
      <trkpt lat="45.39844" lon="4.09002">
        <ele>746</ele>
        <time>2018-09-27T00:25:09Z</time>
      </trkpt>
      <trkpt lat="45.39839" lon="4.08963">
        <ele>743</ele>
        <time>2018-09-27T00:26:09Z</time>
      </trkpt>
      <trkpt lat="45.39837" lon="4.08929">
        <ele>740</ele>
        <time>2018-09-27T00:27:09Z</time>
      </trkpt>
      <trkpt lat="45.39831" lon="4.08887">
        <ele>740</ele>
        <time>2018-09-27T00:28:09Z</time>
      </trkpt>
      <trkpt lat="45.39824" lon="4.08821">
        <ele>741</ele>
        <time>2018-09-27T00:29:09Z</time>
      </trkpt>
      <trkpt lat="45.39833" lon="4.08799">
        <ele>742</ele>
        <time>2018-09-27T00:30:09Z</time>
      </trkpt>
      <trkpt lat="45.39867" lon="4.08794">
        <ele>747</ele>
        <time>2018-09-27T00:31:09Z</time>
      </trkpt>
      <trkpt lat="45.39906" lon="4.08801">
        <ele>753</ele>
        <time>2018-09-27T00:32:09Z</time>
      </trkpt>
      <trkpt lat="45.39931" lon="4.08815">
        <ele>757</ele>
        <time>2018-09-27T00:33:09Z</time>
      </trkpt>
      <trkpt lat="45.39947" lon="4.08798">
        <ele>760</ele>
        <time>2018-09-27T00:34:09Z</time>
      </trkpt>
      <trkpt lat="45.39957" lon="4.08772">
        <ele>764</ele>
        <time>2018-09-27T00:35:09Z</time>
      </trkpt>
      <trkpt lat="45.40009" lon="4.08662">
        <ele>775</ele>
        <time>2018-09-27T00:36:09Z</time>
      </trkpt>
      <trkpt lat="45.40042" lon="4.08586">
        <ele>780</ele>
        <time>2018-09-27T00:37:09Z</time>
      </trkpt>
      <trkpt lat="45.40069" lon="4.08558">
        <ele>784</ele>
        <time>2018-09-27T00:38:09Z</time>
      </trkpt>
      <trkpt lat="45.40096" lon="4.08511">
        <ele>786</ele>
        <time>2018-09-27T00:39:09Z</time>
      </trkpt>
      <trkpt lat="45.40121" lon="4.0849">
        <ele>785</ele>
        <time>2018-09-27T00:40:09Z</time>
      </trkpt>
      <trkpt lat="45.40159" lon="4.08468">
        <ele>785</ele>
        <time>2018-09-27T00:41:09Z</time>
      </trkpt>
      <trkpt lat="45.40182" lon="4.08452">
        <ele>785</ele>
        <time>2018-09-27T00:42:09Z</time>
      </trkpt>
      <trkpt lat="45.40216" lon="4.08397">
        <ele>783</ele>
        <time>2018-09-27T00:43:09Z</time>
      </trkpt>
      <trkpt lat="45.40237" lon="4.08366">
        <ele>784</ele>
        <time>2018-09-27T00:44:09Z</time>
      </trkpt>
      <trkpt lat="45.4025" lon="4.08313">
        <ele>785</ele>
        <time>2018-09-27T00:45:09Z</time>
      </trkpt>
      <trkpt lat="45.40209" lon="4.08361">
        <ele>783</ele>
        <time>2018-09-27T00:46:09Z</time>
      </trkpt>
    </trkseg>
  </trk>
</gpx>